sensor_id;sensor_type;location;lat;lon;timestamp;P1;durP1;ratioP1;P2;durP2;ratioP2
47892;SDS011;33650;51.064;13.756;2022-10-22T00:02:12;16.73;;;10.27;;
47892;SDS011;33650;51.064;13.756;2022-10-22T00:04:49;10.13;;;7.28;;
47892;SDS011;33650;51.064;13.756;2022-10-22T00:07:20;18.77;;;10.75;;
47892;SDS011;33650;51.064;13.756;2022-10-22T00:09:51;21.58;;;10.38;;
47892;SDS011;33650;51.064;13.756;2022-10-22T00:12:22;22.95;;;12.13;;
47892;SDS011;33650;51.064;13.756;2022-10-22T00:14:53;15.73;;;10.90;;
47892;SDS011;33650;51.064;13.756;2022-10-22T00:17:25;19.52;;;10.55;;
47892;SDS011;33650;51.064;13.756;2022-10-22T00:19:56;13.93;;;9.73;;
47892;SDS011;33650;51.064;13.756;2022-10-22T00:22:27;17.95;;;9.48;;
47892;SDS011;33650;51.064;13.756;2022-10-22T00:24:58;17.35;;;9.20;;
47892;SDS011;33650;51.064;13.756;2022-10-22T00:27:29;15.98;;;10.07;;
47892;SDS011;33650;51.064;13.756;2022-10-22T00:30:00;17.50;;;10.35;;
47892;SDS011;33650;51.064;13.756;2022-10-22T00:32:31;15.85;;;9.55;;
47892;SDS011;33650;51.064;13.756;2022-10-22T00:35:03;19.90;;;10.50;;
47892;SDS011;33650;51.064;13.756;2022-10-22T00:37:34;21.23;;;11.90;;
47892;SDS011;33650;51.064;13.756;2022-10-22T00:40:05;18.40;;;10.52;;
47892;SDS011;33650;51.064;13.756;2022-10-22T00:42:36;17.58;;;11.20;;
47892;SDS011;33650;51.064;13.756;2022-10-22T00:47:47;17.35;;;10.50;;
47892;SDS011;33650;51.064;13.756;2022-10-22T00:50:24;21.00;;;12.13;;
47892;SDS011;33650;51.064;13.756;2022-10-22T00:52:56;17.70;;;10.52;;
47892;SDS011;33650;51.064;13.756;2022-10-22T00:55:27;17.95;;;10.45;;
47892;SDS011;33650;51.064;13.756;2022-10-22T00:57:59;19.15;;;10.95;;
47892;SDS011;33650;51.064;13.756;2022-10-22T01:00:31;15.15;;;10.50;;
47892;SDS011;33650;51.064;13.756;2022-10-22T01:03:02;19.33;;;11.40;;
47892;SDS011;33650;51.064;13.756;2022-10-22T01:05:39;17.33;;;11.43;;
47892;SDS011;33650;51.064;13.756;2022-10-22T01:08:15;16.05;;;9.60;;
47892;SDS011;33650;51.064;13.756;2022-10-22T01:16:09;21.95;;;12.38;;
47892;SDS011;33650;51.064;13.756;2022-10-22T01:18:47;15.15;;;10.30;;
47892;SDS011;33650;51.064;13.756;2022-10-22T01:21:28;16.50;;;10.38;;
47892;SDS011;33650;51.064;13.756;2022-10-22T01:24:14;17.45;;;9.35;;
47892;SDS011;33650;51.064;13.756;2022-10-22T01:27:08;15.95;;;11.15;;
47892;SDS011;33650;51.064;13.756;2022-10-22T01:29:51;18.05;;;11.65;;
47892;SDS011;33650;51.064;13.756;2022-10-22T01:32:24;16.65;;;10.73;;
47892;SDS011;33650;51.064;13.756;2022-10-22T01:35:03;19.95;;;10.05;;
47892;SDS011;33650;51.064;13.756;2022-10-22T01:37:45;19.42;;;11.60;;
47892;SDS011;33650;51.064;13.756;2022-10-22T01:40:17;21.35;;;11.38;;
47892;SDS011;33650;51.064;13.756;2022-10-22T01:42:59;17.63;;;10.93;;
47892;SDS011;33650;51.064;13.756;2022-10-22T01:45:35;21.75;;;11.45;;
47892;SDS011;33650;51.064;13.756;2022-10-22T01:50:52;19.73;;;10.73;;
47892;SDS011;33650;51.064;13.756;2022-10-22T02:06:44;23.85;;;9.75;;
47892;SDS011;33650;51.064;13.756;2022-10-22T02:09:16;18.05;;;10.98;;
47892;SDS011;33650;51.064;13.756;2022-10-22T02:11:49;17.02;;;10.88;;
47892;SDS011;33650;51.064;13.756;2022-10-22T02:14:20;13.02;;;8.00;;
47892;SDS011;33650;51.064;13.756;2022-10-22T02:16:52;19.48;;;10.77;;
47892;SDS011;33650;51.064;13.756;2022-10-22T02:19:24;15.50;;;8.63;;
47892;SDS011;33650;51.064;13.756;2022-10-22T02:21:56;21.13;;;11.15;;
47892;SDS011;33650;51.064;13.756;2022-10-22T02:24:27;16.13;;;9.55;;
47892;SDS011;33650;51.064;13.756;2022-10-22T02:29:55;18.67;;;10.45;;
47892;SDS011;33650;51.064;13.756;2022-10-22T02:32:25;19.65;;;10.82;;
47892;SDS011;33650;51.064;13.756;2022-10-22T02:34:58;13.85;;;9.25;;
47892;SDS011;33650;51.064;13.756;2022-10-22T02:37:30;19.30;;;9.38;;
47892;SDS011;33650;51.064;13.756;2022-10-22T02:40:02;16.67;;;10.15;;
47892;SDS011;33650;51.064;13.756;2022-10-22T02:42:33;19.23;;;10.13;;
47892;SDS011;33650;51.064;13.756;2022-10-22T02:45:05;17.80;;;10.38;;
47892;SDS011;33650;51.064;13.756;2022-10-22T02:47:36;13.88;;;9.95;;
47892;SDS011;33650;51.064;13.756;2022-10-22T02:50:07;16.00;;;9.90;;
47892;SDS011;33650;51.064;13.756;2022-10-22T02:52:39;15.55;;;10.23;;
47892;SDS011;33650;51.064;13.756;2022-10-22T02:55:10;17.73;;;9.70;;
47892;SDS011;33650;51.064;13.756;2022-10-22T02:57:41;15.20;;;10.90;;
47892;SDS011;33650;51.064;13.756;2022-10-22T03:00:12;15.75;;;9.85;;
47892;SDS011;33650;51.064;13.756;2022-10-22T03:02:43;18.92;;;12.43;;
47892;SDS011;33650;51.064;13.756;2022-10-22T03:05:15;14.35;;;9.73;;
47892;SDS011;33650;51.064;13.756;2022-10-22T03:07:46;16.80;;;9.93;;
47892;SDS011;33650;51.064;13.756;2022-10-22T03:10:17;19.92;;;10.77;;
47892;SDS011;33650;51.064;13.756;2022-10-22T03:12:48;17.85;;;10.25;;
47892;SDS011;33650;51.064;13.756;2022-10-22T03:15:19;18.20;;;10.55;;
47892;SDS011;33650;51.064;13.756;2022-10-22T03:17:50;19.80;;;13.07;;
47892;SDS011;33650;51.064;13.756;2022-10-22T03:20:21;14.43;;;10.48;;
47892;SDS011;33650;51.064;13.756;2022-10-22T03:22:52;19.15;;;8.85;;
47892;SDS011;33650;51.064;13.756;2022-10-22T03:25:24;20.65;;;9.40;;
47892;SDS011;33650;51.064;13.756;2022-10-22T03:28:00;16.30;;;9.73;;
47892;SDS011;33650;51.064;13.756;2022-10-22T03:30:32;17.17;;;11.00;;
47892;SDS011;33650;51.064;13.756;2022-10-22T03:33:03;14.93;;;8.85;;
47892;SDS011;33650;51.064;13.756;2022-10-22T03:35:35;16.48;;;10.07;;
47892;SDS011;33650;51.064;13.756;2022-10-22T03:38:09;18.67;;;11.57;;
47892;SDS011;33650;51.064;13.756;2022-10-22T03:40:40;20.05;;;10.00;;
47892;SDS011;33650;51.064;13.756;2022-10-22T03:43:12;17.85;;;11.05;;
47892;SDS011;33650;51.064;13.756;2022-10-22T03:45:43;24.13;;;11.77;;
47892;SDS011;33650;51.064;13.756;2022-10-22T03:48:14;22.08;;;10.25;;
47892;SDS011;33650;51.064;13.756;2022-10-22T03:50:45;18.00;;;10.90;;
47892;SDS011;33650;51.064;13.756;2022-10-22T03:53:16;18.38;;;10.77;;
47892;SDS011;33650;51.064;13.756;2022-10-22T03:55:47;15.18;;;10.18;;
47892;SDS011;33650;51.064;13.756;2022-10-22T03:58:18;17.30;;;9.65;;
47892;SDS011;33650;51.064;13.756;2022-10-22T04:00:49;21.85;;;12.90;;
47892;SDS011;33650;51.064;13.756;2022-10-22T04:03:20;27.13;;;12.18;;
47892;SDS011;33650;51.064;13.756;2022-10-22T04:05:51;16.40;;;11.30;;
47892;SDS011;33650;51.064;13.756;2022-10-22T04:08:22;18.55;;;10.20;;
47892;SDS011;33650;51.064;13.756;2022-10-22T04:10:53;14.77;;;7.10;;
47892;SDS011;33650;51.064;13.756;2022-10-22T04:13:24;21.00;;;11.77;;
47892;SDS011;33650;51.064;13.756;2022-10-22T04:16:05;17.38;;;9.82;;
47892;SDS011;33650;51.064;13.756;2022-10-22T04:18:36;15.73;;;9.85;;
47892;SDS011;33650;51.064;13.756;2022-10-22T04:21:08;22.77;;;11.32;;
47892;SDS011;33650;51.064;13.756;2022-10-22T04:23:43;15.95;;;9.88;;
47892;SDS011;33650;51.064;13.756;2022-10-22T04:26:14;15.23;;;9.13;;
47892;SDS011;33650;51.064;13.756;2022-10-22T04:28:46;16.00;;;10.13;;
47892;SDS011;33650;51.064;13.756;2022-10-22T04:31:19;18.48;;;12.30;;
47892;SDS011;33650;51.064;13.756;2022-10-22T04:33:51;15.35;;;10.32;;
47892;SDS011;33650;51.064;13.756;2022-10-22T04:36:23;19.98;;;11.40;;
47892;SDS011;33650;51.064;13.756;2022-10-22T04:38:55;19.35;;;11.60;;
47892;SDS011;33650;51.064;13.756;2022-10-22T04:41:36;18.17;;;8.80;;
47892;SDS011;33650;51.064;13.756;2022-10-22T04:44:07;13.75;;;10.43;;
47892;SDS011;33650;51.064;13.756;2022-10-22T04:46:38;16.27;;;8.57;;
47892;SDS011;33650;51.064;13.756;2022-10-22T04:49:10;17.45;;;9.63;;
47892;SDS011;33650;51.064;13.756;2022-10-22T04:51:41;17.63;;;10.57;;
47892;SDS011;33650;51.064;13.756;2022-10-22T04:54:12;16.70;;;10.10;;
47892;SDS011;33650;51.064;13.756;2022-10-22T04:56:43;16.33;;;9.75;;
47892;SDS011;33650;51.064;13.756;2022-10-22T04:59:14;13.80;;;9.25;;
47892;SDS011;33650;51.064;13.756;2022-10-22T05:01:45;18.92;;;9.93;;
47892;SDS011;33650;51.064;13.756;2022-10-22T05:04:16;17.83;;;10.82;;
47892;SDS011;33650;51.064;13.756;2022-10-22T05:06:48;18.08;;;9.32;;
47892;SDS011;33650;51.064;13.756;2022-10-22T05:09:20;20.48;;;10.52;;
47892;SDS011;33650;51.064;13.756;2022-10-22T05:11:51;18.95;;;9.73;;
47892;SDS011;33650;51.064;13.756;2022-10-22T05:14:23;13.48;;;9.63;;
47892;SDS011;33650;51.064;13.756;2022-10-22T05:16:55;18.00;;;10.90;;
47892;SDS011;33650;51.064;13.756;2022-10-22T05:19:26;21.05;;;10.85;;
47892;SDS011;33650;51.064;13.756;2022-10-22T05:21:59;16.30;;;9.30;;
47892;SDS011;33650;51.064;13.756;2022-10-22T05:24:31;15.38;;;9.75;;
47892;SDS011;33650;51.064;13.756;2022-10-22T05:27:02;13.43;;;8.13;;
47892;SDS011;33650;51.064;13.756;2022-10-22T05:29:33;17.98;;;9.75;;
47892;SDS011;33650;51.064;13.756;2022-10-22T05:32:04;12.73;;;8.45;;
47892;SDS011;33650;51.064;13.756;2022-10-22T05:34:35;19.42;;;10.73;;
47892;SDS011;33650;51.064;13.756;2022-10-22T05:37:06;12.80;;;8.93;;
47892;SDS011;33650;51.064;13.756;2022-10-22T05:39:37;15.20;;;8.73;;
47892;SDS011;33650;51.064;13.756;2022-10-22T05:42:10;19.17;;;10.77;;
47892;SDS011;33650;51.064;13.756;2022-10-22T05:44:41;20.30;;;11.18;;
47892;SDS011;33650;51.064;13.756;2022-10-22T05:47:12;15.13;;;8.60;;
47892;SDS011;33650;51.064;13.756;2022-10-22T05:49:43;13.77;;;8.15;;
47892;SDS011;33650;51.064;13.756;2022-10-22T05:52:14;16.58;;;8.25;;
47892;SDS011;33650;51.064;13.756;2022-10-22T05:54:45;12.45;;;9.00;;
47892;SDS011;33650;51.064;13.756;2022-10-22T05:57:16;14.40;;;7.65;;
47892;SDS011;33650;51.064;13.756;2022-10-22T05:59:47;14.88;;;9.40;;
47892;SDS011;33650;51.064;13.756;2022-10-22T06:02:18;14.07;;;9.52;;
47892;SDS011;33650;51.064;13.756;2022-10-22T06:04:49;20.80;;;9.85;;
47892;SDS011;33650;51.064;13.756;2022-10-22T06:07:20;16.75;;;9.85;;
47892;SDS011;33650;51.064;13.756;2022-10-22T06:09:51;16.65;;;11.32;;
47892;SDS011;33650;51.064;13.756;2022-10-22T06:12:23;14.60;;;10.05;;
47892;SDS011;33650;51.064;13.756;2022-10-22T06:14:54;14.57;;;9.30;;
47892;SDS011;33650;51.064;13.756;2022-10-22T06:17:25;17.80;;;10.57;;
47892;SDS011;33650;51.064;13.756;2022-10-22T06:19:56;12.13;;;8.95;;
47892;SDS011;33650;51.064;13.756;2022-10-22T06:22:27;18.00;;;10.60;;
47892;SDS011;33650;51.064;13.756;2022-10-22T06:24:58;14.48;;;8.80;;
47892;SDS011;33650;51.064;13.756;2022-10-22T06:27:29;12.70;;;7.80;;
47892;SDS011;33650;51.064;13.756;2022-10-22T06:30:00;14.70;;;8.18;;
47892;SDS011;33650;51.064;13.756;2022-10-22T06:32:31;12.95;;;8.18;;
47892;SDS011;33650;51.064;13.756;2022-10-22T06:35:02;16.27;;;9.23;;
47892;SDS011;33650;51.064;13.756;2022-10-22T06:37:33;17.13;;;9.93;;
47892;SDS011;33650;51.064;13.756;2022-10-22T06:40:04;16.73;;;8.52;;
47892;SDS011;33650;51.064;13.756;2022-10-22T06:42:36;17.20;;;8.90;;
47892;SDS011;33650;51.064;13.756;2022-10-22T06:45:07;16.80;;;9.75;;
47892;SDS011;33650;51.064;13.756;2022-10-22T06:47:38;13.40;;;9.65;;
47892;SDS011;33650;51.064;13.756;2022-10-22T06:50:09;15.07;;;7.85;;
47892;SDS011;33650;51.064;13.756;2022-10-22T06:52:40;14.40;;;9.20;;
47892;SDS011;33650;51.064;13.756;2022-10-22T06:55:11;16.30;;;9.88;;
47892;SDS011;33650;51.064;13.756;2022-10-22T06:57:42;16.70;;;9.13;;
47892;SDS011;33650;51.064;13.756;2022-10-22T07:00:13;12.18;;;8.10;;
47892;SDS011;33650;51.064;13.756;2022-10-22T07:02:49;12.85;;;9.07;;
47892;SDS011;33650;51.064;13.756;2022-10-22T07:05:21;17.77;;;9.90;;
47892;SDS011;33650;51.064;13.756;2022-10-22T07:07:52;13.63;;;9.82;;
47892;SDS011;33650;51.064;13.756;2022-10-22T07:10:23;16.33;;;9.88;;
47892;SDS011;33650;51.064;13.756;2022-10-22T07:12:54;14.68;;;9.27;;
47892;SDS011;33650;51.064;13.756;2022-10-22T07:15:25;16.40;;;9.80;;
47892;SDS011;33650;51.064;13.756;2022-10-22T07:17:56;16.88;;;9.55;;
47892;SDS011;33650;51.064;13.756;2022-10-22T07:20:28;11.65;;;8.35;;
47892;SDS011;33650;51.064;13.756;2022-10-22T07:22:59;19.30;;;8.63;;
47892;SDS011;33650;51.064;13.756;2022-10-22T07:25:30;11.57;;;8.27;;
47892;SDS011;33650;51.064;13.756;2022-10-22T07:28:01;13.90;;;9.70;;
47892;SDS011;33650;51.064;13.756;2022-10-22T07:30:32;14.32;;;8.70;;
47892;SDS011;33650;51.064;13.756;2022-10-22T07:33:03;20.65;;;10.38;;
47892;SDS011;33650;51.064;13.756;2022-10-22T07:35:37;14.02;;;8.00;;
47892;SDS011;33650;51.064;13.756;2022-10-22T07:38:08;13.65;;;8.10;;
47892;SDS011;33650;51.064;13.756;2022-10-22T07:40:39;16.80;;;8.52;;
47892;SDS011;33650;51.064;13.756;2022-10-22T07:43:11;15.60;;;8.93;;
47892;SDS011;33650;51.064;13.756;2022-10-22T07:45:42;9.23;;;7.35;;
47892;SDS011;33650;51.064;13.756;2022-10-22T07:48:13;14.32;;;9.02;;
47892;SDS011;33650;51.064;13.756;2022-10-22T07:50:44;20.27;;;9.25;;
47892;SDS011;33650;51.064;13.756;2022-10-22T07:53:15;11.93;;;8.32;;
47892;SDS011;33650;51.064;13.756;2022-10-22T07:55:47;13.63;;;9.05;;
47892;SDS011;33650;51.064;13.756;2022-10-22T07:58:19;16.02;;;8.27;;
47892;SDS011;33650;51.064;13.756;2022-10-22T08:00:53;15.77;;;10.65;;
47892;SDS011;33650;51.064;13.756;2022-10-22T08:03:25;15.57;;;9.32;;
47892;SDS011;33650;51.064;13.756;2022-10-22T08:05:56;19.25;;;10.25;;
47892;SDS011;33650;51.064;13.756;2022-10-22T08:08:27;15.07;;;9.18;;
47892;SDS011;33650;51.064;13.756;2022-10-22T08:11:02;17.40;;;10.63;;
47892;SDS011;33650;51.064;13.756;2022-10-22T08:13:33;15.63;;;8.02;;
47892;SDS011;33650;51.064;13.756;2022-10-22T08:16:04;10.27;;;6.82;;
47892;SDS011;33650;51.064;13.756;2022-10-22T08:18:35;21.05;;;12.13;;
47892;SDS011;33650;51.064;13.756;2022-10-22T08:21:08;15.63;;;7.75;;
47892;SDS011;33650;51.064;13.756;2022-10-22T08:23:39;14.93;;;10.25;;
47892;SDS011;33650;51.064;13.756;2022-10-22T08:26:10;14.68;;;8.77;;
47892;SDS011;33650;51.064;13.756;2022-10-22T08:28:41;16.65;;;8.65;;
47892;SDS011;33650;51.064;13.756;2022-10-22T08:31:12;18.67;;;8.93;;
47892;SDS011;33650;51.064;13.756;2022-10-22T08:33:43;10.30;;;6.22;;
47892;SDS011;33650;51.064;13.756;2022-10-22T08:36:15;14.52;;;9.90;;
47892;SDS011;33650;51.064;13.756;2022-10-22T08:38:46;11.23;;;7.38;;
47892;SDS011;33650;51.064;13.756;2022-10-22T08:41:21;10.38;;;8.52;;
47892;SDS011;33650;51.064;13.756;2022-10-22T08:43:59;12.77;;;6.78;;
47892;SDS011;33650;51.064;13.756;2022-10-22T08:49:06;10.93;;;7.53;;
47892;SDS011;33650;51.064;13.756;2022-10-22T08:51:38;8.65;;;7.68;;
47892;SDS011;33650;51.064;13.756;2022-10-22T08:54:15;10.95;;;7.05;;
47892;SDS011;33650;51.064;13.756;2022-10-22T08:56:54;12.88;;;8.07;;
47892;SDS011;33650;51.064;13.756;2022-10-22T08:59:31;11.80;;;7.72;;
47892;SDS011;33650;51.064;13.756;2022-10-22T09:02:11;13.05;;;8.18;;
47892;SDS011;33650;51.064;13.756;2022-10-22T09:04:44;8.80;;;6.77;;
47892;SDS011;33650;51.064;13.756;2022-10-22T09:07:18;12.07;;;8.27;;
47892;SDS011;33650;51.064;13.756;2022-10-22T09:09:49;20.08;;;11.02;;
47892;SDS011;33650;51.064;13.756;2022-10-22T09:12:21;18.13;;;11.18;;
47892;SDS011;33650;51.064;13.756;2022-10-22T09:14:53;33.45;;;15.93;;
47892;SDS011;33650;51.064;13.756;2022-10-22T09:17:27;38.28;;;21.40;;
47892;SDS011;33650;51.064;13.756;2022-10-22T09:25:17;20.60;;;11.80;;
47892;SDS011;33650;51.064;13.756;2022-10-22T09:27:49;7.13;;;5.57;;
47892;SDS011;33650;51.064;13.756;2022-10-22T09:30:22;9.32;;;6.05;;
47892;SDS011;33650;51.064;13.756;2022-10-22T09:35:47;11.48;;;7.28;;
47892;SDS011;33650;51.064;13.756;2022-10-22T09:38:23;8.80;;;6.25;;
47892;SDS011;33650;51.064;13.756;2022-10-22T09:40:56;8.68;;;6.28;;
47892;SDS011;33650;51.064;13.756;2022-10-22T09:43:28;13.65;;;6.50;;
47892;SDS011;33650;51.064;13.756;2022-10-22T09:46:00;12.32;;;8.48;;
47892;SDS011;33650;51.064;13.756;2022-10-22T09:48:33;13.85;;;8.63;;
47892;SDS011;33650;51.064;13.756;2022-10-22T09:51:09;6.50;;;5.60;;
47892;SDS011;33650;51.064;13.756;2022-10-22T09:53:44;11.35;;;7.97;;
47892;SDS011;33650;51.064;13.756;2022-10-22T09:56:26;11.57;;;6.43;;
47892;SDS011;33650;51.064;13.756;2022-10-22T09:58:57;8.15;;;6.15;;
47892;SDS011;33650;51.064;13.756;2022-10-22T10:01:31;8.30;;;6.32;;
47892;SDS011;33650;51.064;13.756;2022-10-22T10:04:03;9.80;;;6.22;;
47892;SDS011;33650;51.064;13.756;2022-10-22T10:06:35;8.70;;;5.93;;
47892;SDS011;33650;51.064;13.756;2022-10-22T10:09:18;13.50;;;7.55;;
47892;SDS011;33650;51.064;13.756;2022-10-22T10:25:40;6.82;;;4.43;;
47892;SDS011;33650;51.064;13.756;2022-10-22T10:30:46;7.93;;;4.75;;
47892;SDS011;33650;51.064;13.756;2022-10-22T10:33:45;6.68;;;4.68;;
47892;SDS011;33650;51.064;13.756;2022-10-22T10:36:18;7.70;;;4.90;;
47892;SDS011;33650;51.064;13.756;2022-10-22T10:49:24;5.55;;;3.58;;
47892;SDS011;33650;51.064;13.756;2022-10-22T10:51:57;3.50;;;2.92;;
47892;SDS011;33650;51.064;13.756;2022-10-22T10:57:05;4.70;;;4.20;;
47892;SDS011;33650;51.064;13.756;2022-10-22T11:05:06;7.13;;;3.88;;
47892;SDS011;33650;51.064;13.756;2022-10-22T11:07:48;3.33;;;3.03;;
47892;SDS011;33650;51.064;13.756;2022-10-22T11:10:27;4.82;;;2.47;;
47892;SDS011;33650;51.064;13.756;2022-10-22T11:15:46;9.50;;;3.42;;
47892;SDS011;33650;51.064;13.756;2022-10-22T11:18:29;3.65;;;2.72;;
47892;SDS011;33650;51.064;13.756;2022-10-22T11:23:38;8.13;;;3.75;;
47892;SDS011;33650;51.064;13.756;2022-10-22T11:26:54;3.78;;;3.33;;
47892;SDS011;33650;51.064;13.756;2022-10-22T11:29:06;5.20;;;3.95;;
47892;SDS011;33650;51.064;13.756;2022-10-22T11:31:43;5.35;;;3.78;;
47892;SDS011;33650;51.064;13.756;2022-10-22T11:36:48;4.40;;;3.00;;
47892;SDS011;33650;51.064;13.756;2022-10-22T11:39:26;2.67;;;2.47;;
47892;SDS011;33650;51.064;13.756;2022-10-22T11:44:30;5.25;;;3.33;;
47892;SDS011;33650;51.064;13.756;2022-10-22T11:47:15;9.40;;;6.10;;
47892;SDS011;33650;51.064;13.756;2022-10-22T11:50:42;12.60;;;6.22;;
47892;SDS011;33650;51.064;13.756;2022-10-22T11:52:39;16.73;;;10.63;;
47892;SDS011;33650;51.064;13.756;2022-10-22T11:58:01;8.13;;;3.95;;
47892;SDS011;33650;51.064;13.756;2022-10-22T12:00:53;3.53;;;2.65;;
47892;SDS011;33650;51.064;13.756;2022-10-22T12:06:04;3.88;;;3.38;;
47892;SDS011;33650;51.064;13.756;2022-10-22T12:19:16;5.28;;;3.92;;
47892;SDS011;33650;51.064;13.756;2022-10-22T12:21:52;4.03;;;3.63;;
47892;SDS011;33650;51.064;13.756;2022-10-22T12:24:24;8.25;;;5.18;;
47892;SDS011;33650;51.064;13.756;2022-10-22T12:26:55;4.78;;;3.20;;
47892;SDS011;33650;51.064;13.756;2022-10-22T12:29:29;6.30;;;2.90;;
47892;SDS011;33650;51.064;13.756;2022-10-22T12:32:02;4.00;;;3.28;;
47892;SDS011;33650;51.064;13.756;2022-10-22T12:34:33;4.85;;;2.47;;
47892;SDS011;33650;51.064;13.756;2022-10-22T12:37:04;3.80;;;3.03;;
47892;SDS011;33650;51.064;13.756;2022-10-22T12:39:35;6.70;;;3.38;;
47892;SDS011;33650;51.064;13.756;2022-10-22T12:42:07;4.15;;;2.90;;
47892;SDS011;33650;51.064;13.756;2022-10-22T12:44:42;3.75;;;2.67;;
47892;SDS011;33650;51.064;13.756;2022-10-22T12:47:14;4.55;;;2.92;;
47892;SDS011;33650;51.064;13.756;2022-10-22T12:49:46;5.10;;;2.60;;
47892;SDS011;33650;51.064;13.756;2022-10-22T12:52:19;3.67;;;2.38;;
47892;SDS011;33650;51.064;13.756;2022-10-22T12:54:50;2.72;;;2.22;;
47892;SDS011;33650;51.064;13.756;2022-10-22T12:57:23;5.70;;;2.15;;
47892;SDS011;33650;51.064;13.756;2022-10-22T12:59:54;5.72;;;2.72;;
47892;SDS011;33650;51.064;13.756;2022-10-22T13:02:26;3.45;;;3.15;;
47892;SDS011;33650;51.064;13.756;2022-10-22T13:07:52;4.13;;;2.58;;
47892;SDS011;33650;51.064;13.756;2022-10-22T13:10:29;4.55;;;2.28;;
47892;SDS011;33650;51.064;13.756;2022-10-22T13:13:01;2.25;;;1.80;;
47892;SDS011;33650;51.064;13.756;2022-10-22T13:15:38;2.50;;;1.70;;
47892;SDS011;33650;51.064;13.756;2022-10-22T13:18:16;3.20;;;2.17;;
47892;SDS011;33650;51.064;13.756;2022-10-22T13:20:49;2.58;;;2.17;;
47892;SDS011;33650;51.064;13.756;2022-10-22T13:23:21;2.70;;;2.13;;
47892;SDS011;33650;51.064;13.756;2022-10-22T13:26:35;4.50;;;2.35;;
47892;SDS011;33650;51.064;13.756;2022-10-22T13:28:50;2.33;;;1.95;;
47892;SDS011;33650;51.064;13.756;2022-10-22T13:31:29;2.47;;;2.28;;
47892;SDS011;33650;51.064;13.756;2022-10-22T13:34:11;7.93;;;3.67;;
47892;SDS011;33650;51.064;13.756;2022-10-22T13:36:45;2.17;;;1.52;;
47892;SDS011;33650;51.064;13.756;2022-10-22T13:39:17;1.27;;;1.17;;
47892;SDS011;33650;51.064;13.756;2022-10-22T13:41:48;2.35;;;1.58;;
47892;SDS011;33650;51.064;13.756;2022-10-22T13:44:20;1.52;;;1.23;;
47892;SDS011;33650;51.064;13.756;2022-10-22T13:46:51;1.75;;;1.65;;
47892;SDS011;33650;51.064;13.756;2022-10-22T13:49:22;1.17;;;1.08;;
47892;SDS011;33650;51.064;13.756;2022-10-22T13:51:53;3.03;;;0.85;;
47892;SDS011;33650;51.064;13.756;2022-10-22T13:54:24;1.45;;;0.70;;
47892;SDS011;33650;51.064;13.756;2022-10-22T13:56:55;0.50;;;0.40;;
47892;SDS011;33650;51.064;13.756;2022-10-22T13:59:26;0.40;;;0.40;;
47892;SDS011;33650;51.064;13.756;2022-10-22T14:01:57;0.98;;;0.50;;
47892;SDS011;33650;51.064;13.756;2022-10-22T14:04:34;0.38;;;0.38;;
47892;SDS011;33650;51.064;13.756;2022-10-22T14:07:13;0.30;;;0.30;;
47892;SDS011;33650;51.064;13.756;2022-10-22T14:09:44;0.50;;;0.50;;
47892;SDS011;33650;51.064;13.756;2022-10-22T14:12:15;5.57;;;0.82;;
47892;SDS011;33650;51.064;13.756;2022-10-22T14:14:47;2.70;;;1.35;;
47892;SDS011;33650;51.064;13.756;2022-10-22T14:17:18;0.40;;;0.40;;
47892;SDS011;33650;51.064;13.756;2022-10-22T14:19:49;2.55;;;0.70;;
47892;SDS011;33650;51.064;13.756;2022-10-22T14:22:20;0.35;;;0.35;;
47892;SDS011;33650;51.064;13.756;2022-10-22T14:24:52;0.28;;;0.28;;
47892;SDS011;33650;51.064;13.756;2022-10-22T14:27:24;0.57;;;0.22;;
47892;SDS011;33650;51.064;13.756;2022-10-22T14:29:55;1.88;;;0.40;;
47892;SDS011;33650;51.064;13.756;2022-10-22T14:32:26;0.43;;;0.43;;
47892;SDS011;33650;51.064;13.756;2022-10-22T14:34:58;0.55;;;0.40;;
47892;SDS011;33650;51.064;13.756;2022-10-22T14:37:30;1.35;;;0.40;;
47892;SDS011;33650;51.064;13.756;2022-10-22T14:40:01;0.50;;;0.50;;
47892;SDS011;33650;51.064;13.756;2022-10-22T14:42:33;0.50;;;0.50;;
47892;SDS011;33650;51.064;13.756;2022-10-22T14:45:11;3.45;;;0.80;;
47892;SDS011;33650;51.064;13.756;2022-10-22T14:47:43;0.40;;;0.40;;
47892;SDS011;33650;51.064;13.756;2022-10-22T14:50:15;0.93;;;0.75;;
47892;SDS011;33650;51.064;13.756;2022-10-22T14:52:46;1.25;;;0.52;;
47892;SDS011;33650;51.064;13.756;2022-10-22T14:55:18;0.45;;;0.40;;
47892;SDS011;33650;51.064;13.756;2022-10-22T14:57:49;1.48;;;0.40;;
47892;SDS011;33650;51.064;13.756;2022-10-22T15:00:20;0.50;;;0.50;;
47892;SDS011;33650;51.064;13.756;2022-10-22T15:02:51;1.92;;;1.55;;
47892;SDS011;33650;51.064;13.756;2022-10-22T15:05:24;0.30;;;0.30;;
47892;SDS011;33650;51.064;13.756;2022-10-22T15:07:55;0.75;;;0.50;;
47892;SDS011;33650;51.064;13.756;2022-10-22T15:10:28;0.52;;;0.50;;
47892;SDS011;33650;51.064;13.756;2022-10-22T15:12:59;0.73;;;0.50;;
47892;SDS011;33650;51.064;13.756;2022-10-22T15:15:30;0.30;;;0.30;;
47892;SDS011;33650;51.064;13.756;2022-10-22T15:18:01;1.55;;;0.60;;
47892;SDS011;33650;51.064;13.756;2022-10-22T15:20:32;0.75;;;0.50;;
47892;SDS011;33650;51.064;13.756;2022-10-22T15:23:03;0.50;;;0.40;;
47892;SDS011;33650;51.064;13.756;2022-10-22T15:25:34;0.60;;;0.52;;
47892;SDS011;33650;51.064;13.756;2022-10-22T15:28:05;0.82;;;0.40;;
47892;SDS011;33650;51.064;13.756;2022-10-22T15:30:37;0.55;;;0.55;;
47892;SDS011;33650;51.064;13.756;2022-10-22T15:33:08;0.50;;;0.50;;
47892;SDS011;33650;51.064;13.756;2022-10-22T15:35:39;1.23;;;1.08;;
47892;SDS011;33650;51.064;13.756;2022-10-22T15:38:10;0.50;;;0.47;;
47892;SDS011;33650;51.064;13.756;2022-10-22T15:40:41;1.20;;;0.70;;
47892;SDS011;33650;51.064;13.756;2022-10-22T15:43:13;1.08;;;0.57;;
47892;SDS011;33650;51.064;13.756;2022-10-22T15:45:44;0.60;;;0.60;;
47892;SDS011;33650;51.064;13.756;2022-10-22T15:48:18;1.48;;;0.68;;
47892;SDS011;33650;51.064;13.756;2022-10-22T15:50:49;1.00;;;0.57;;
47892;SDS011;33650;51.064;13.756;2022-10-22T15:53:20;0.85;;;0.38;;
47892;SDS011;33650;51.064;13.756;2022-10-22T15:55:51;1.85;;;1.40;;
47892;SDS011;33650;51.064;13.756;2022-10-22T15:58:24;2.85;;;0.50;;
47892;SDS011;33650;51.064;13.756;2022-10-22T16:01:01;1.15;;;0.60;;
47892;SDS011;33650;51.064;13.756;2022-10-22T16:03:33;0.85;;;0.85;;
47892;SDS011;33650;51.064;13.756;2022-10-22T16:06:04;1.40;;;0.90;;
47892;SDS011;33650;51.064;13.756;2022-10-22T16:08:36;3.83;;;2.50;;
47892;SDS011;33650;51.064;13.756;2022-10-22T16:11:08;4.00;;;2.85;;
47892;SDS011;33650;51.064;13.756;2022-10-22T16:13:39;3.60;;;2.40;;
47892;SDS011;33650;51.064;13.756;2022-10-22T16:16:10;3.80;;;2.78;;
47892;SDS011;33650;51.064;13.756;2022-10-22T16:18:41;4.20;;;3.80;;
47892;SDS011;33650;51.064;13.756;2022-10-22T16:21:12;6.35;;;3.13;;
47892;SDS011;33650;51.064;13.756;2022-10-22T16:23:43;5.38;;;4.13;;
47892;SDS011;33650;51.064;13.756;2022-10-22T16:26:15;6.93;;;4.47;;
47892;SDS011;33650;51.064;13.756;2022-10-22T16:28:47;8.52;;;6.00;;
47892;SDS011;33650;51.064;13.756;2022-10-22T16:31:19;9.23;;;6.10;;
47892;SDS011;33650;51.064;13.756;2022-10-22T16:33:50;30.90;;;6.70;;
47892;SDS011;33650;51.064;13.756;2022-10-22T16:36:21;9.48;;;5.70;;
47892;SDS011;33650;51.064;13.756;2022-10-22T16:38:52;11.68;;;7.28;;